createdAt,value
2022-08-07T00:01:43.765Z,100848.59
2022-08-07T00:04:09.500Z,100846.84
2022-08-07T00:06:40.901Z,100839.91
2022-08-07T00:09:16.228Z,100845.09
2022-08-07T00:11:54.242Z,100845.97
2022-08-07T00:14:25.339Z,100850.31
2022-08-07T00:16:58.832Z,100846.00
2022-08-07T00:19:34.296Z,100846.00
2022-08-07T00:22:12.884Z,100850.31
2022-08-07T00:24:52.592Z,100853.81
2022-08-07T00:27:19.591Z,100856.41
2022-08-07T00:29:50.247Z,100856.44
2022-08-07T00:32:18.945Z,100857.28
2022-08-07T00:34:55.404Z,100863.38
2022-08-07T00:37:22.670Z,100858.16
2022-08-07T00:39:54.239Z,100848.63
2022-08-07T00:42:29.102Z,100853.84
2022-08-07T00:44:56.356Z,100848.59
2022-08-07T00:48:08.104Z,100853.81
2022-08-07T00:50:19.215Z,100852.06
2022-08-07T00:52:57.551Z,100851.19
2022-08-07T00:55:25.609Z,100847.69
2022-08-07T00:58:12.587Z,100852.91
2022-08-07T01:00:54.048Z,100849.44
2022-08-07T01:03:54.696Z,100843.34
2022-08-07T01:06:09.496Z,100845.94
2022-08-07T01:08:43.116Z,100846.78
2022-08-07T01:12:04.444Z,100846.78
2022-08-07T01:13:58.085Z,100859.84
2022-08-07T01:16:30.290Z,100855.47
2022-08-07T01:18:59.883Z,100855.47
2022-08-07T01:21:28.447Z,100858.06
2022-08-07T01:23:57.982Z,100854.59
2022-08-07T01:26:26.141Z,100853.72
2022-08-07T01:28:55.122Z,100854.63
2022-08-07T01:31:41.678Z,100851.16
2022-08-07T01:34:14.338Z,100857.22
2022-08-07T01:36:44.094Z,100850.25
2022-08-07T01:39:18.602Z,100852.00
2022-08-07T01:42:36.818Z,100845.91
2022-08-07T01:44:47.974Z,100852.00
2022-08-07T01:48:16.835Z,100856.31
2022-08-07T01:50:04.987Z,100845.91
2022-08-07T01:52:33.365Z,100852.84
2022-08-07T01:55:01.036Z,100848.50
2022-08-07T01:58:06.407Z,100854.59
2022-08-07T02:00:28.948Z,100854.59
2022-08-07T02:03:18.041Z,100858.94
2022-08-07T02:06:00.943Z,100855.47
2022-08-07T02:08:37.376Z,100863.28
2022-08-07T02:11:07.934Z,100865.03
2022-08-07T02:13:57.824Z,100872.84
2022-08-07T02:16:33.337Z,100865.91
2022-08-07T02:20:04.157Z,100861.56
2022-08-07T02:21:59.679Z,100870.25
2022-08-07T02:24:29.292Z,100864.16
2022-08-07T02:27:00.115Z,100859.78
2022-08-07T02:29:29.081Z,100859.78
2022-08-07T02:31:58.304Z,100863.28
2022-08-07T02:34:28.328Z,100857.19
2022-08-07T02:36:58.019Z,100857.19
2022-08-07T02:39:42.386Z,100863.28
2022-08-07T02:42:16.139Z,100861.59
2022-08-07T02:44:48.137Z,100858.97
2022-08-07T02:47:19.838Z,100868.56
2022-08-07T02:49:58.519Z,100865.06
2022-08-07T02:52:35.316Z,100868.56
2022-08-07T02:55:27.663Z,100864.19
2022-08-07T02:58:00.186Z,100870.28
2022-08-07T03:00:30.373Z,100860.72
2022-08-07T03:02:59.267Z,100864.19
2022-08-07T03:05:29.193Z,100859.00
2022-08-07T03:08:10.590Z,100858.13
2022-08-07T03:10:46.452Z,100865.09
2022-08-07T03:13:20.184Z,100857.28
2022-08-07T03:15:58.506Z,100856.41
2022-08-07T03:18:34.593Z,100860.75
2022-08-07T03:21:08.837Z,100871.19
2022-08-07T03:24:19.528Z,100863.38
2022-08-07T03:26:32.118Z,100862.50
2022-08-07T03:29:04.040Z,100869.47
2022-08-07T03:31:43.300Z,100866.88
2022-08-07T03:34:18.181Z,100872.94
2022-08-07T03:36:48.048Z,100881.66
2022-08-07T03:39:17.516Z,100871.19
2022-08-07T03:42:06.028Z,100869.44
2022-08-07T03:44:35.336Z,100879.88
2022-08-07T03:47:14.155Z,100879.00
2022-08-07T03:49:48.007Z,100875.53
2022-08-07T03:52:27.522Z,100876.41
2022-08-07T03:55:06.572Z,100879.03
2022-08-07T03:58:34.396Z,100876.38
2022-08-07T04:00:33.871Z,100884.19
2022-08-07T04:03:04.995Z,100880.69
2022-08-07T04:05:42.325Z,100890.28
2022-08-07T04:08:18.810Z,100879.84
2022-08-07T04:10:54.446Z,100885.91
2022-08-07T04:14:10.927Z,100880.63
2022-08-07T04:16:31.173Z,100889.31
2022-08-07T04:19:12.570Z,100890.19
2022-08-07T04:21:47.974Z,100891.03
2022-08-07T04:24:33.754Z,100897.09
2022-08-07T04:27:05.769Z,100892.75
2022-08-07T04:29:58.483Z,100893.59
2022-08-07T04:32:58.337Z,100890.09
2022-08-07T04:35:35.061Z,100899.66
2022-08-07T04:38:11.436Z,100897.03
2022-08-07T04:40:52.955Z,100900.53
2022-08-07T04:44:12.240Z,100896.97
2022-08-07T04:46:34.772Z,100894.16
2022-08-07T04:49:29.378Z,100894.94
2022-08-07T04:52:51.153Z,100897.56
2022-08-07T04:58:23.767Z,100903.66
2022-08-07T05:01:45.673Z,100909.56
2022-08-07T05:04:19.183Z,100906.56
2022-08-07T05:07:30.557Z,100912.97
2022-08-07T05:10:22.284Z,100908.88
2022-08-07T05:13:10.087Z,100909.88
2022-08-07T05:15:53.649Z,100911.50
2022-08-07T05:18:29.616Z,100917.16
2022-08-07T05:21:04.539Z,100916.94
2022-08-07T05:23:58.446Z,100921.81
2022-08-07T05:26:28.298Z,100921.56
2022-08-07T05:29:05.025Z,100927.41
2022-08-07T05:31:38.636Z,100926.31
2022-08-07T05:34:15.849Z,100925.03
2022-08-07T05:36:53.458Z,100935.91
2022-08-07T05:40:18.016Z,100925.00
2022-08-07T05:42:33.773Z,100928.31
2022-08-07T05:45:26.088Z,100930.69
2022-08-07T05:48:01.609Z,100926.47
2022-08-07T05:50:34.284Z,100930.25
2022-08-07T05:53:02.642Z,100926.41
2022-08-07T05:56:03.273Z,100932.34
2022-08-07T05:58:36.288Z,100935.13
2022-08-07T06:01:10.663Z,100934.25
2022-08-07T06:03:53.167Z,100933.09
2022-08-07T06:06:29.691Z,100938.00
2022-08-07T06:09:04.459Z,100938.66
2022-08-07T06:11:34.674Z,100935.78
2022-08-07T06:14:12.400Z,100939.91
2022-08-07T06:16:50.597Z,100942.03
2022-08-07T06:19:52.233Z,100941.84
2022-08-07T06:22:23.455Z,100945.69
2022-08-07T06:25:05.847Z,100949.91
2022-08-07T06:27:59.868Z,100954.56
2022-08-07T06:30:31.861Z,100951.38
2022-08-07T06:33:15.639Z,100947.75
2022-08-07T06:36:06.526Z,100963.03
2022-08-07T06:38:34.978Z,100964.09
2022-08-07T06:41:09.788Z,100963.63
2022-08-07T06:43:46.186Z,100960.94
2022-08-07T06:46:31.030Z,100959.69
2022-08-07T06:49:03.939Z,100959.94
2022-08-07T06:51:49.367Z,100965.50
2022-08-07T06:55:31.345Z,100966.78
2022-08-07T06:57:09.720Z,100965.28
2022-08-07T07:00:13.312Z,100967.78
2022-08-07T07:02:48.964Z,100975.09
2022-08-07T07:06:04.322Z,100971.97
2022-08-07T07:08:07.377Z,100971.69
2022-08-07T07:10:47.519Z,100976.84
2022-08-07T07:13:56.483Z,100971.97
2022-08-07T07:16:30.026Z,100973.56
2022-08-07T07:19:11.432Z,100964.59
2022-08-07T07:22:04.812Z,100968.13
2022-08-07T07:24:36.803Z,100963.63
2022-08-07T07:27:06.166Z,100968.97
2022-08-07T07:29:39.954Z,100957.91
2022-08-07T07:32:24.560Z,100964.25
2022-08-07T07:34:56.316Z,100973.34
2022-08-07T07:37:49.653Z,100955.53
2022-08-07T07:40:16.655Z,100958.38
2022-08-07T07:42:51.265Z,100956.56
2022-08-07T07:46:37.766Z,100950.25
2022-08-07T07:48:24.042Z,100950.97
2022-08-07T07:51:02.551Z,100953.81
2022-08-07T07:53:51.450Z,100952.09
2022-08-07T07:56:30.219Z,100951.16
2022-08-07T07:59:02.552Z,100951.69
2022-08-07T08:02:02.666Z,100951.53
2022-08-07T08:04:20.354Z,100957.69
2022-08-07T08:06:53.491Z,100947.94
2022-08-07T08:09:23.673Z,100953.06
2022-08-07T08:12:01.569Z,100957.75
2022-08-07T08:14:36.471Z,100951.84
2022-08-07T08:17:55.385Z,100957.16
2022-08-07T08:20:19.750Z,100955.88
2022-08-07T08:23:10.725Z,100945.75
2022-08-07T08:26:03.377Z,100946.22
2022-08-07T08:28:38.865Z,100954.19
2022-08-07T08:31:16.452Z,100948.28
2022-08-07T08:33:55.724Z,100955.22
2022-08-07T08:36:29.584Z,100948.75
2022-08-07T08:39:02.097Z,100947.97
2022-08-07T08:41:59.001Z,100957.28
2022-08-07T08:44:57.440Z,100954.47
2022-08-07T08:47:52.533Z,100949.50
2022-08-07T08:50:28.228Z,100953.41
2022-08-07T08:53:06.769Z,100950.09
2022-08-07T08:55:58.995Z,100958.53
2022-08-07T08:58:57.987Z,100947.38
2022-08-07T09:01:49.918Z,100949.25
2022-08-07T09:04:37.535Z,100958.31
2022-08-07T09:07:23.269Z,100957.34
2022-08-07T09:10:13.983Z,100947.63
2022-08-07T09:13:04.098Z,100949.22
2022-08-07T09:16:25.298Z,100956.44
2022-08-07T09:19:50.981Z,100962.34
2022-08-07T09:22:37.118Z,100955.94
2022-08-07T09:25:14.657Z,100958.28
2022-08-07T09:30:01.528Z,100957.00
2022-08-07T09:31:24.175Z,100948.91
2022-08-07T09:34:28.445Z,100949.41
2022-08-07T09:37:05.365Z,100947.00
2022-08-07T09:39:58.030Z,100943.47
2022-08-07T09:43:05.543Z,100935.91
2022-08-07T09:47:50.138Z,100936.25
2022-08-07T09:50:02.686Z,100936.06
2022-08-07T09:52:34.515Z,100933.81
2022-08-07T09:55:16.896Z,100938.84
2022-08-07T09:58:10.267Z,100935.22
2022-08-07T10:01:08.382Z,100937.19
2022-08-07T10:04:05.433Z,100937.44
2022-08-07T10:07:25.740Z,100933.88
2022-08-07T10:10:21.890Z,100937.66
2022-08-07T10:13:15.910Z,100933.72
2022-08-07T10:16:19.251Z,100925.63
2022-08-07T10:19:27.034Z,100926.75
2022-08-07T10:22:33.526Z,100935.16
2022-08-07T10:25:42.451Z,100924.91
2022-08-07T10:28:26.036Z,100920.59
2022-08-07T10:31:15.220Z,100918.53
2022-08-07T10:34:06.143Z,100919.47
2022-08-07T10:36:52.827Z,100915.13
2022-08-07T10:40:03.216Z,100906.75
2022-08-07T10:42:51.877Z,100906.88
2022-08-07T10:45:44.847Z,100909.25
2022-08-07T10:48:59.138Z,100903.03
2022-08-07T10:52:12.861Z,100905.09
2022-08-07T10:54:55.201Z,100905.53
2022-08-07T10:57:56.184Z,100895.13
2022-08-07T11:00:36.757Z,100887.09
2022-08-07T11:03:37.419Z,100892.59
2022-08-07T11:06:10.689Z,100888.00
2022-08-07T11:10:09.400Z,100889.72
2022-08-07T11:12:19.059Z,100879.34
2022-08-07T11:15:17.320Z,100890.97
2022-08-07T11:17:56.903Z,100886.72
2022-08-07T11:21:15.779Z,100875.03
2022-08-07T11:24:08.641Z,100887.25
2022-08-07T11:26:56.058Z,100881.09
2022-08-07T11:29:40.734Z,100878.19
2022-08-07T11:32:25.903Z,100881.22
2022-08-07T11:34:59.213Z,100878.00
2022-08-07T11:38:12.862Z,100881.94
2022-08-07T11:41:06.353Z,100882.66
2022-08-07T11:44:18.686Z,100875.84
2022-08-07T11:47:15.694Z,100880.00
2022-08-07T11:50:30.503Z,100881.09
2022-08-07T11:53:01.876Z,100884.47
2022-08-07T11:56:27.344Z,100883.97
2022-08-07T12:00:12.268Z,100884.75
2022-08-07T12:02:34.027Z,100877.91
2022-08-07T12:05:28.760Z,100886.06
2022-08-07T12:08:31.359Z,100877.56
2022-08-07T12:11:22.344Z,100873.47
2022-08-07T12:14:13.667Z,100866.34
2022-08-07T12:16:54.851Z,100865.09
2022-08-07T12:19:35.520Z,100871.22
2022-08-07T12:22:59.195Z,100864.31
2022-08-07T12:26:21.614Z,100869.22
2022-08-07T12:29:08.529Z,100852.44
2022-08-07T12:32:12.374Z,100865.00
2022-08-07T12:34:42.101Z,100857.94
2022-08-07T12:37:23.437Z,100861.34
2022-08-07T12:39:51.742Z,100856.78
2022-08-07T12:42:27.643Z,100854.34
2022-08-07T12:44:58.914Z,100852.34
2022-08-07T12:48:04.618Z,100854.47
2022-08-07T12:51:17.109Z,100854.06
2022-08-07T12:54:37.791Z,100855.16
2022-08-07T12:57:09.659Z,100846.25
2022-08-07T12:59:53.954Z,100846.91
2022-08-07T13:02:49.638Z,100841.50
2022-08-07T13:06:02.950Z,100834.91
2022-08-07T13:09:01.637Z,100838.97
2022-08-07T13:12:02.995Z,100845.00
2022-08-07T13:14:55.700Z,100833.44
2022-08-07T13:17:40.046Z,100838.91
2022-08-07T13:20:39.037Z,100834.16
2022-08-07T13:24:03.747Z,100824.81
2022-08-07T13:26:26.616Z,100834.00
2022-08-07T13:29:01.944Z,100828.75
2022-08-07T13:31:57.811Z,100829.69
2022-08-07T13:35:08.518Z,100835.53
2022-08-07T13:37:58.657Z,100824.69
2022-08-07T13:40:35.354Z,100842.31
2022-08-07T13:43:13.691Z,100828.66
2022-08-07T13:46:12.001Z,100835.44
2022-08-07T13:48:34.630Z,100833.00
2022-08-07T13:51:02.740Z,100829.97
2022-08-07T13:53:59.377Z,100837.03
2022-08-07T13:56:35.517Z,100833.56
2022-08-07T13:59:20.644Z,100843.88
2022-08-07T14:02:12.972Z,100835.22
2022-08-07T14:04:58.370Z,100833.88
2022-08-07T14:07:31.947Z,100835.81
2022-08-07T14:10:16.320Z,100831.19
2022-08-07T14:12:54.218Z,100822.75
2022-08-07T14:15:42.230Z,100838.00
2022-08-07T14:18:28.911Z,100837.66
2022-08-07T14:21:11.662Z,100830.41
2022-08-07T14:24:00.493Z,100827.91
2022-08-07T14:26:51.321Z,100819.09
2022-08-07T14:30:05.061Z,100819.78
2022-08-07T14:32:13.429Z,100833.47
2022-08-07T14:34:46.064Z,100813.34
2022-08-07T14:37:17.432Z,100812.41
2022-08-07T14:40:17.799Z,100821.78
2022-08-07T14:43:00.936Z,100816.16
2022-08-07T14:45:26.369Z,100822.34
2022-08-07T14:48:19.982Z,100812.50
2022-08-07T14:50:50.791Z,100820.91
2022-08-07T14:54:03.574Z,100819.69
2022-08-07T14:59:13.958Z,100823.78
2022-08-07T15:01:58.303Z,100825.72
2022-08-07T15:04:26.279Z,100827.34
2022-08-07T15:06:57.089Z,100835.06
2022-08-07T15:09:59.695Z,100814.81
2022-08-07T15:12:25.538Z,100822.34
2022-08-07T15:20:55.042Z,100813.63
2022-08-07T15:25:03.089Z,100815.88
2022-08-07T15:26:21.223Z,100824.19
2022-08-07T15:28:56.744Z,100812.16
2022-08-07T15:32:00.978Z,100817.50
2022-08-07T15:34:26.121Z,100816.72
2022-08-07T15:37:04.029Z,100826.16
2022-08-07T15:39:57.740Z,100831.69
2022-08-07T15:42:52.345Z,100833.34
2022-08-07T15:45:22.399Z,100839.03
2022-08-07T15:53:51.658Z,100833.09
2022-08-07T15:56:24.295Z,100826.69
2022-08-07T15:58:53.839Z,100820.59
2022-08-07T16:01:39.356Z,100827.59
2022-08-07T16:04:15.128Z,100809.53
2022-08-07T16:07:04.802Z,100820.19
2022-08-07T16:09:54.030Z,100812.75
2022-08-07T16:13:04.873Z,100824.09
2022-08-07T16:16:06.469Z,100810.06
2022-08-07T16:18:49.446Z,100804.16
2022-08-07T16:22:03.214Z,100835.84
2022-08-07T16:24:33.739Z,100824.63
2022-08-07T16:27:18.179Z,100822.81
2022-08-07T16:30:31.136Z,100829.97
2022-08-07T16:34:01.374Z,100821.13
2022-08-07T16:36:07.979Z,100820.59
2022-08-07T16:39:06.169Z,100821.44
2022-08-07T16:41:58.974Z,100810.88
2022-08-07T16:45:15.577Z,100816.75
2022-08-07T16:48:13.446Z,100806.50
2022-08-07T16:51:22.650Z,100807.25
2022-08-07T16:54:06.803Z,100804.03
2022-08-07T16:58:01.013Z,100806.50
2022-08-07T17:00:15.231Z,100801.44
2022-08-07T17:03:04.979Z,100811.50
2022-08-07T17:06:26.569Z,100805.19
2022-08-07T17:09:14.318Z,100811.19
2022-08-07T17:12:03.980Z,100812.91
2022-08-07T17:14:55.992Z,100818.22
2022-08-07T17:17:44.021Z,100811.06
2022-08-07T17:20:31.469Z,100818.22
2022-08-07T17:23:31.869Z,100813.13
2022-08-07T17:26:31.284Z,100820.31
2022-08-07T17:30:16.193Z,100808.81
2022-08-07T17:32:30.453Z,100820.25
2022-08-07T17:35:51.707Z,100810.88
2022-08-07T17:38:32.201Z,100810.81
2022-08-07T17:42:04.401Z,100815.97
2022-08-07T17:44:33.548Z,100812.53
2022-08-07T17:47:42.338Z,100817.78
2022-08-07T17:50:30.238Z,100812.63
2022-08-07T17:53:06.076Z,100818.94
2022-08-07T17:56:00.527Z,100812.84
2022-08-07T17:58:53.133Z,100822.31
2022-08-07T18:01:36.801Z,100816.28
2022-08-07T18:04:24.643Z,100818.09
2022-08-07T18:07:22.606Z,100810.00
2022-08-07T18:10:32.370Z,100805.75
2022-08-07T18:12:59.993Z,100810.25
2022-08-07T18:15:32.763Z,100820.13
2022-08-07T18:18:47.270Z,100820.09
2022-08-07T18:21:53.367Z,100826.94
2022-08-07T18:24:45.604Z,100815.91
2022-08-07T18:27:41.023Z,100824.16
2022-08-07T18:30:31.156Z,100824.59
2022-08-07T18:33:35.207Z,100833.28
2022-08-07T18:36:33.378Z,100834.81
2022-08-07T18:40:08.307Z,100841.81
2022-08-07T18:42:12.961Z,100856.00
2022-08-07T18:45:43.488Z,100853.34
2022-08-07T18:48:00.516Z,100851.50
2022-08-07T18:50:45.986Z,100851.56
2022-08-07T18:53:40.108Z,100863.84
2022-08-07T18:56:35.388Z,100857.81
2022-08-07T18:59:59.515Z,100858.88
2022-08-07T19:02:36.129Z,100857.06
2022-08-07T19:05:16.087Z,100852.84
2022-08-07T19:08:07.385Z,100859.13
2022-08-07T19:10:52.246Z,100856.59
2022-08-07T19:13:50.131Z,100861.03
2022-08-07T19:17:00.646Z,100860.25
2022-08-07T19:19:57.098Z,100860.38
2022-08-07T19:22:36.209Z,100861.38
2022-08-07T19:25:07.691Z,100858.97
2022-08-07T19:28:29.453Z,100860.81
2022-08-07T19:31:01.321Z,100870.53
2022-08-07T19:33:33.243Z,100864.47
2022-08-07T19:36:03.904Z,100872.38
2022-08-07T19:38:33.849Z,100870.66
2022-08-07T19:41:01.601Z,100871.59
2022-08-07T19:43:50.096Z,100863.88
2022-08-07T19:46:26.664Z,100868.31
2022-08-07T19:49:06.995Z,100873.63
2022-08-07T19:51:51.968Z,100876.25
2022-08-07T19:54:32.247Z,100871.88
2022-08-07T19:58:02.713Z,100865.69
2022-08-07T20:00:03.919Z,100875.28
2022-08-07T20:02:51.664Z,100873.53
2022-08-07T20:05:27.825Z,100880.47
2022-08-07T20:08:04.999Z,100875.22
2022-08-07T20:10:52.058Z,100884.88
2022-08-07T20:13:38.238Z,100886.69
2022-08-07T20:16:32.025Z,100880.66
2022-08-07T20:18:59.629Z,100891.31
2022-08-07T20:21:41.713Z,100886.28
2022-08-07T20:24:18.913Z,100886.38
2022-08-07T20:26:52.160Z,100884.72
2022-08-07T20:29:48.211Z,100884.00
2022-08-07T20:32:25.552Z,100882.38
2022-08-07T20:34:56.409Z,100889.50
2022-08-07T20:37:25.941Z,100884.38
2022-08-07T20:40:04.342Z,100888.84
2022-08-07T20:42:34.457Z,100891.56
2022-08-07T20:45:04.644Z,100897.81
2022-08-07T20:47:57.250Z,100894.38
2022-08-07T20:50:28.969Z,100890.97
2022-08-07T20:52:58.370Z,100887.53
2022-08-07T20:55:25.678Z,100891.06
2022-08-07T20:58:04.189Z,100891.13
2022-08-07T21:00:46.442Z,100895.56
2022-08-07T21:03:16.925Z,100885.16
2022-08-07T21:05:55.995Z,100884.34
2022-08-07T21:08:37.569Z,100894.91
2022-08-07T21:11:17.762Z,100894.13
2022-08-07T21:14:29.780Z,100893.34
2022-08-07T21:18:03.549Z,100894.31
2022-08-07T21:20:04.741Z,100889.97
2022-08-07T21:22:38.944Z,100890.91
2022-08-07T21:25:17.944Z,100884.91
2022-08-07T21:28:48.910Z,100892.81
2022-08-07T21:31:49.398Z,100893.69
2022-08-07T21:34:20.484Z,100893.72
2022-08-07T21:37:00.806Z,100899.88
2022-08-07T21:39:46.506Z,100893.84
2022-08-07T21:42:46.613Z,100893.88
2022-08-07T21:46:08.568Z,100898.28
2022-08-07T21:48:43.747Z,100901.72
2022-08-07T21:51:54.498Z,100887.84
2022-08-07T21:54:45.945Z,100894.84
2022-08-07T21:57:44.907Z,100897.50
2022-08-07T22:00:25.603Z,100894.88
2022-08-07T22:02:55.497Z,100901.03
2022-08-07T22:05:46.218Z,100901.91
2022-08-07T22:08:18.438Z,100904.53
2022-08-07T22:10:49.781Z,100895.75
2022-08-07T22:13:17.473Z,100898.34
2022-08-07T22:16:40.096Z,100905.38
2022-08-07T22:19:29.913Z,100914.13
2022-08-07T22:22:17.965Z,100904.50
2022-08-07T22:25:11.238Z,100900.09
2022-08-07T22:28:07.351Z,100905.28
2022-08-07T22:31:11.354Z,100899.13
2022-08-07T22:33:56.204Z,100895.59
2022-08-07T22:36:47.514Z,100899.97
2022-08-07T22:39:52.781Z,100904.41
2022-08-07T22:42:25.630Z,100903.47
2022-08-07T22:44:58.958Z,100893.94
2022-08-07T22:47:35.323Z,100897.47
2022-08-07T22:50:20.896Z,100892.28
2022-08-07T22:53:19.194Z,100884.44
2022-08-07T22:56:08.649Z,100884.44
2022-08-07T22:58:48.615Z,100882.72
2022-08-07T23:01:42.052Z,100885.41
2022-08-07T23:04:36.113Z,100879.22
2022-08-07T23:08:00.433Z,100877.47
2022-08-07T23:10:52.421Z,100881.84
2022-08-07T23:13:48.691Z,100878.34
2022-08-07T23:16:54.893Z,100878.34
2022-08-07T23:20:08.967Z,100872.22
2022-08-07T23:24:04.490Z,100873.91
2022-08-07T23:26:26.272Z,100867.78
2022-08-07T23:29:16.830Z,100878.22
2022-08-07T23:34:21.202Z,100879.09
2022-08-07T23:35:19.748Z,100875.56
2022-08-07T23:38:36.892Z,100875.56
2022-08-07T23:41:47.574Z,100867.75
2022-08-07T23:44:53.833Z,100872.06
2022-08-07T23:48:01.976Z,100873.81
2022-08-07T23:50:45.622Z,100867.69
2022-08-07T23:53:51.133Z,100874.66
2022-08-07T23:56:57.134Z,100874.63
